sensor_id;sensor_type;location;lat;lon;timestamp;temperature;humidity
3756;DHT22;1893;52.526;13.360;2022-09-23T00:01:15;8.20;99.90
3756;DHT22;1893;52.526;13.360;2022-09-23T00:03:43;8.20;99.90
3756;DHT22;1893;52.526;13.360;2022-09-23T00:06:17;8.30;99.90
3756;DHT22;1893;52.526;13.360;2022-09-23T00:08:43;8.20;99.90
3756;DHT22;1893;52.526;13.360;2022-09-23T00:11:12;8.20;99.90
3756;DHT22;1893;52.526;13.360;2022-09-23T00:13:40;8.10;99.90
3756;DHT22;1893;52.526;13.360;2022-09-23T00:16:09;8.20;99.90
3756;DHT22;1893;52.526;13.360;2022-09-23T00:18:35;8.20;99.90
3756;DHT22;1893;52.526;13.360;2022-09-23T00:21:06;8.20;99.90
3756;DHT22;1893;52.526;13.360;2022-09-23T00:23:33;8.20;99.90
3756;DHT22;1893;52.526;13.360;2022-09-23T00:26:00;8.20;99.90
3756;DHT22;1893;52.526;13.360;2022-09-23T00:28:27;8.30;99.90
3756;DHT22;1893;52.526;13.360;2022-09-23T00:30:52;8.20;99.90
3756;DHT22;1893;52.526;13.360;2022-09-23T00:33:18;8.20;99.90
3756;DHT22;1893;52.526;13.360;2022-09-23T00:35:43;8.30;99.90
3756;DHT22;1893;52.526;13.360;2022-09-23T00:38:09;8.30;99.90
3756;DHT22;1893;52.526;13.360;2022-09-23T00:40:34;8.30;99.90
3756;DHT22;1893;52.526;13.360;2022-09-23T00:43:01;8.30;99.90
3756;DHT22;1893;52.526;13.360;2022-09-23T00:45:27;8.30;99.90
3756;DHT22;1893;52.526;13.360;2022-09-23T00:47:58;8.30;99.90
3756;DHT22;1893;52.526;13.360;2022-09-23T00:50:32;8.20;99.90
3756;DHT22;1893;52.526;13.360;2022-09-23T00:53:03;8.20;99.90
3756;DHT22;1893;52.526;13.360;2022-09-23T00:55:37;8.10;99.90
3756;DHT22;1893;52.526;13.360;2022-09-23T00:58:06;8.00;99.90
3756;DHT22;1893;52.526;13.360;2022-09-23T01:00:35;8.00;99.90
3756;DHT22;1893;52.526;13.360;2022-09-23T01:03:02;8.10;99.90
3756;DHT22;1893;52.526;13.360;2022-09-23T01:05:30;8.10;99.90
3756;DHT22;1893;52.526;13.360;2022-09-23T01:07:56;8.10;99.90
3756;DHT22;1893;52.526;13.360;2022-09-23T01:10:23;8.10;99.90
3756;DHT22;1893;52.526;13.360;2022-09-23T01:13:07;8.10;99.90
3756;DHT22;1893;52.526;13.360;2022-09-23T01:16:00;8.00;99.90
3756;DHT22;1893;52.526;13.360;2022-09-23T01:18:44;7.90;99.90
3756;DHT22;1893;52.526;13.360;2022-09-23T01:34:49;8.00;99.90
3756;DHT22;1893;52.526;13.360;2022-09-23T01:40:24;8.00;99.90
3756;DHT22;1893;52.526;13.360;2022-09-23T01:42:57;7.80;99.90
3756;DHT22;1893;52.526;13.360;2022-09-23T01:45:40;7.80;99.90
3756;DHT22;1893;52.526;13.360;2022-09-23T01:48:14;7.90;99.90
3756;DHT22;1893;52.526;13.360;2022-09-23T01:51:08;7.90;99.90
3756;DHT22;1893;52.526;13.360;2022-09-23T01:54:39;7.90;99.90
3756;DHT22;1893;52.526;13.360;2022-09-23T01:56:49;7.90;99.90
3756;DHT22;1893;52.526;13.360;2022-09-23T01:59:19;7.90;99.90
3756;DHT22;1893;52.526;13.360;2022-09-23T02:04:29;7.80;99.90
3756;DHT22;1893;52.526;13.360;2022-09-23T02:07:10;7.70;99.90
3756;DHT22;1893;52.526;13.360;2022-09-23T02:09:42;7.70;99.90
3756;DHT22;1893;52.526;13.360;2022-09-23T02:12:13;7.80;99.90
3756;DHT22;1893;52.526;13.360;2022-09-23T02:14:52;7.70;99.90
3756;DHT22;1893;52.526;13.360;2022-09-23T02:17:28;7.70;99.90
3756;DHT22;1893;52.526;13.360;2022-09-23T02:20:03;7.70;99.90
3756;DHT22;1893;52.526;13.360;2022-09-23T02:22:40;7.70;99.90
3756;DHT22;1893;52.526;13.360;2022-09-23T02:25:07;7.70;99.90
3756;DHT22;1893;52.526;13.360;2022-09-23T02:27:46;7.80;99.90
3756;DHT22;1893;52.526;13.360;2022-09-23T02:30:17;7.80;99.90
3756;DHT22;1893;52.526;13.360;2022-09-23T02:35:21;7.70;99.90
3756;DHT22;1893;52.526;13.360;2022-09-23T02:38:12;7.70;99.90
3756;DHT22;1893;52.526;13.360;2022-09-23T02:40:54;7.80;99.90
3756;DHT22;1893;52.526;13.360;2022-09-23T02:43:29;7.80;99.90
3756;DHT22;1893;52.526;13.360;2022-09-23T02:46:01;7.70;99.90
3756;DHT22;1893;52.526;13.360;2022-09-23T02:48:40;7.70;99.90
3756;DHT22;1893;52.526;13.360;2022-09-23T02:51:08;7.70;99.90
3756;DHT22;1893;52.526;13.360;2022-09-23T02:53:35;7.60;99.90
3756;DHT22;1893;52.526;13.360;2022-09-23T02:56:01;7.60;99.90
3756;DHT22;1893;52.526;13.360;2022-09-23T02:58:28;7.60;99.90
3756;DHT22;1893;52.526;13.360;2022-09-23T03:01:08;7.60;99.90
3756;DHT22;1893;52.526;13.360;2022-09-23T03:06:31;7.60;99.90
3756;DHT22;1893;52.526;13.360;2022-09-23T03:09:04;7.60;99.90
3756;DHT22;1893;52.526;13.360;2022-09-23T03:11:30;7.60;99.90
3756;DHT22;1893;52.526;13.360;2022-09-23T03:19:37;7.90;99.90
3756;DHT22;1893;52.526;13.360;2022-09-23T03:22:20;7.70;99.90
3756;DHT22;1893;52.526;13.360;2022-09-23T03:24:48;7.70;99.90
3756;DHT22;1893;52.526;13.360;2022-09-23T03:27:17;7.70;99.90
3756;DHT22;1893;52.526;13.360;2022-09-23T03:29:46;7.70;99.90
3756;DHT22;1893;52.526;13.360;2022-09-23T03:32:16;7.70;99.90
3756;DHT22;1893;52.526;13.360;2022-09-23T03:34:43;7.60;99.90
3756;DHT22;1893;52.526;13.360;2022-09-23T03:37:21;7.60;99.90
3756;DHT22;1893;52.526;13.360;2022-09-23T03:39:51;7.60;99.90
3756;DHT22;1893;52.526;13.360;2022-09-23T03:42:22;7.60;99.90
3756;DHT22;1893;52.526;13.360;2022-09-23T03:44:52;7.50;99.90
3756;DHT22;1893;52.526;13.360;2022-09-23T03:47:19;7.40;99.90
3756;DHT22;1893;52.526;13.360;2022-09-23T03:49:47;7.30;99.90
3756;DHT22;1893;52.526;13.360;2022-09-23T03:52:14;7.30;99.90
3756;DHT22;1893;52.526;13.360;2022-09-23T03:54:40;7.20;99.90
3756;DHT22;1893;52.526;13.360;2022-09-23T03:57:06;7.20;99.90
3756;DHT22;1893;52.526;13.360;2022-09-23T03:59:32;7.10;99.90
3756;DHT22;1893;52.526;13.360;2022-09-23T04:01:58;7.10;99.90
3756;DHT22;1893;52.526;13.360;2022-09-23T04:04:25;7.10;99.90
3756;DHT22;1893;52.526;13.360;2022-09-23T04:06:52;7.10;99.90
3756;DHT22;1893;52.526;13.360;2022-09-23T04:09:19;7.00;99.90
3756;DHT22;1893;52.526;13.360;2022-09-23T04:11:44;7.00;99.90
3756;DHT22;1893;52.526;13.360;2022-09-23T04:14:10;6.90;99.90
3756;DHT22;1893;52.526;13.360;2022-09-23T04:16:36;7.10;99.90
3756;DHT22;1893;52.526;13.360;2022-09-23T04:19:02;7.20;99.90
3756;DHT22;1893;52.526;13.360;2022-09-23T04:21:27;7.20;99.90
3756;DHT22;1893;52.526;13.360;2022-09-23T04:23:55;7.10;99.90
3756;DHT22;1893;52.526;13.360;2022-09-23T04:26:20;7.20;99.90
3756;DHT22;1893;52.526;13.360;2022-09-23T04:28:46;7.20;99.90
3756;DHT22;1893;52.526;13.360;2022-09-23T04:31:11;7.10;99.90
3756;DHT22;1893;52.526;13.360;2022-09-23T04:33:37;7.00;99.90
3756;DHT22;1893;52.526;13.360;2022-09-23T04:36:03;7.20;99.90
3756;DHT22;1893;52.526;13.360;2022-09-23T04:38:29;6.90;99.90
3756;DHT22;1893;52.526;13.360;2022-09-23T04:40:54;6.90;99.90
3756;DHT22;1893;52.526;13.360;2022-09-23T04:43:20;6.80;99.90
3756;DHT22;1893;52.526;13.360;2022-09-23T04:46:00;6.90;99.90
3756;DHT22;1893;52.526;13.360;2022-09-23T04:48:26;6.90;99.90
3756;DHT22;1893;52.526;13.360;2022-09-23T04:50:52;6.80;99.90
3756;DHT22;1893;52.526;13.360;2022-09-23T04:53:18;6.80;99.90
3756;DHT22;1893;52.526;13.360;2022-09-23T04:55:44;6.70;99.90
3756;DHT22;1893;52.526;13.360;2022-09-23T04:58:10;6.80;99.90
3756;DHT22;1893;52.526;13.360;2022-09-23T05:00:36;6.90;99.90
3756;DHT22;1893;52.526;13.360;2022-09-23T05:03:01;7.00;99.90
3756;DHT22;1893;52.526;13.360;2022-09-23T05:05:27;7.00;99.90
3756;DHT22;1893;52.526;13.360;2022-09-23T05:07:54;7.10;99.90
3756;DHT22;1893;52.526;13.360;2022-09-23T05:10:20;7.10;99.90
3756;DHT22;1893;52.526;13.360;2022-09-23T05:12:46;7.10;99.90
3756;DHT22;1893;52.526;13.360;2022-09-23T05:15:11;7.00;99.90
3756;DHT22;1893;52.526;13.360;2022-09-23T05:17:43;7.10;99.90
3756;DHT22;1893;52.526;13.360;2022-09-23T05:20:09;7.10;99.90
3756;DHT22;1893;52.526;13.360;2022-09-23T05:22:35;7.10;99.90
3756;DHT22;1893;52.526;13.360;2022-09-23T05:25:01;7.10;99.90
3756;DHT22;1893;52.526;13.360;2022-09-23T05:27:27;7.20;99.90
3756;DHT22;1893;52.526;13.360;2022-09-23T05:29:53;7.20;99.90
3756;DHT22;1893;52.526;13.360;2022-09-23T05:32:19;7.30;99.90
3756;DHT22;1893;52.526;13.360;2022-09-23T05:34:45;7.30;99.90
3756;DHT22;1893;52.526;13.360;2022-09-23T05:37:10;7.40;99.90
3756;DHT22;1893;52.526;13.360;2022-09-23T05:39:36;7.50;99.90
3756;DHT22;1893;52.526;13.360;2022-09-23T05:42:02;7.50;99.90
3756;DHT22;1893;52.526;13.360;2022-09-23T05:44:28;7.60;99.90
3756;DHT22;1893;52.526;13.360;2022-09-23T05:46:54;7.70;99.90
3756;DHT22;1893;52.526;13.360;2022-09-23T05:49:19;7.80;99.90
3756;DHT22;1893;52.526;13.360;2022-09-23T05:51:45;7.80;99.90
3756;DHT22;1893;52.526;13.360;2022-09-23T05:54:10;8.00;99.90
3756;DHT22;1893;52.526;13.360;2022-09-23T05:56:37;8.10;99.90
3756;DHT22;1893;52.526;13.360;2022-09-23T05:59:04;8.20;99.90
3756;DHT22;1893;52.526;13.360;2022-09-23T06:01:32;8.30;99.90
3756;DHT22;1893;52.526;13.360;2022-09-23T06:03:59;8.40;99.90
3756;DHT22;1893;52.526;13.360;2022-09-23T06:06:28;8.40;99.90
3756;DHT22;1893;52.526;13.360;2022-09-23T06:08:54;8.50;99.90
3756;DHT22;1893;52.526;13.360;2022-09-23T06:11:20;8.50;99.90
3756;DHT22;1893;52.526;13.360;2022-09-23T06:13:46;8.60;99.90
3756;DHT22;1893;52.526;13.360;2022-09-23T06:16:13;8.60;99.90
3756;DHT22;1893;52.526;13.360;2022-09-23T06:18:40;8.70;99.90
3756;DHT22;1893;52.526;13.360;2022-09-23T06:21:07;8.80;99.90
3756;DHT22;1893;52.526;13.360;2022-09-23T06:23:34;8.90;99.90
3756;DHT22;1893;52.526;13.360;2022-09-23T06:26:00;9.20;99.90
3756;DHT22;1893;52.526;13.360;2022-09-23T06:28:30;9.70;99.90
3756;DHT22;1893;52.526;13.360;2022-09-23T06:30:58;10.20;99.90
3756;DHT22;1893;52.526;13.360;2022-09-23T06:33:24;10.60;1.00
3756;DHT22;1893;52.526;13.360;2022-09-23T06:35:57;10.90;1.00
3756;DHT22;1893;52.526;13.360;2022-09-23T06:38:24;11.20;1.00
3756;DHT22;1893;52.526;13.360;2022-09-23T06:40:51;11.40;1.00
3756;DHT22;1893;52.526;13.360;2022-09-23T06:43:17;11.70;1.00
3756;DHT22;1893;52.526;13.360;2022-09-23T06:45:43;11.60;1.00
3756;DHT22;1893;52.526;13.360;2022-09-23T06:48:08;11.50;1.00
3756;DHT22;1893;52.526;13.360;2022-09-23T06:50:34;11.30;1.00
3756;DHT22;1893;52.526;13.360;2022-09-23T06:53:00;11.40;1.00
3756;DHT22;1893;52.526;13.360;2022-09-23T06:55:26;11.40;1.00
3756;DHT22;1893;52.526;13.360;2022-09-23T06:57:58;11.10;1.00
3756;DHT22;1893;52.526;13.360;2022-09-23T07:00:24;11.10;1.00
3756;DHT22;1893;52.526;13.360;2022-09-23T07:02:50;11.00;1.00
3756;DHT22;1893;52.526;13.360;2022-09-23T07:05:16;11.00;1.00
3756;DHT22;1893;52.526;13.360;2022-09-23T07:07:42;11.10;1.00
3756;DHT22;1893;52.526;13.360;2022-09-23T07:10:09;11.10;1.00
3756;DHT22;1893;52.526;13.360;2022-09-23T07:12:35;11.20;1.00
3756;DHT22;1893;52.526;13.360;2022-09-23T07:15:00;11.40;1.00
3756;DHT22;1893;52.526;13.360;2022-09-23T07:17:26;11.50;1.00
3756;DHT22;1893;52.526;13.360;2022-09-23T07:19:52;11.50;1.00
3756;DHT22;1893;52.526;13.360;2022-09-23T07:22:22;11.70;1.00
3756;DHT22;1893;52.526;13.360;2022-09-23T07:24:52;11.70;1.00
3756;DHT22;1893;52.526;13.360;2022-09-23T07:27:24;11.90;99.90
3756;DHT22;1893;52.526;13.360;2022-09-23T07:29:51;12.20;1.00
3756;DHT22;1893;52.526;13.360;2022-09-23T07:32:18;12.40;1.00
3756;DHT22;1893;52.526;13.360;2022-09-23T07:34:44;12.50;1.00
3756;DHT22;1893;52.526;13.360;2022-09-23T07:37:11;12.70;99.90
3756;DHT22;1893;52.526;13.360;2022-09-23T07:39:37;12.80;99.90
3756;DHT22;1893;52.526;13.360;2022-09-23T07:42:04;12.70;1.00
3756;DHT22;1893;52.526;13.360;2022-09-23T07:44:30;12.70;97.20
3756;DHT22;1893;52.526;13.360;2022-09-23T07:46:56;12.90;1.00
3756;DHT22;1893;52.526;13.360;2022-09-23T07:49:22;12.90;1.00
3756;DHT22;1893;52.526;13.360;2022-09-23T07:51:48;12.80;1.00
3756;DHT22;1893;52.526;13.360;2022-09-23T07:54:15;12.80;1.00
3756;DHT22;1893;52.526;13.360;2022-09-23T07:56:41;12.90;99.90
3756;DHT22;1893;52.526;13.360;2022-09-23T07:59:11;13.00;99.90
3756;DHT22;1893;52.526;13.360;2022-09-23T08:01:42;13.00;1.00
3756;DHT22;1893;52.526;13.360;2022-09-23T08:04:12;12.90;1.00
3756;DHT22;1893;52.526;13.360;2022-09-23T08:06:43;13.10;13.20
3756;DHT22;1893;52.526;13.360;2022-09-23T08:09:10;13.20;1.00
3756;DHT22;1893;52.526;13.360;2022-09-23T08:11:36;13.40;1.00
3756;DHT22;1893;52.526;13.360;2022-09-23T08:14:09;13.50;99.90
3756;DHT22;1893;52.526;13.360;2022-09-23T08:16:35;13.50;1.00
3756;DHT22;1893;52.526;13.360;2022-09-23T08:19:02;13.60;86.60
3756;DHT22;1893;52.526;13.360;2022-09-23T08:21:27;13.60;1.00
3756;DHT22;1893;52.526;13.360;2022-09-23T08:23:54;13.70;56.50
3756;DHT22;1893;52.526;13.360;2022-09-23T08:26:19;13.70;99.90
3756;DHT22;1893;52.526;13.360;2022-09-23T08:28:45;13.80;99.90
3756;DHT22;1893;52.526;13.360;2022-09-23T08:31:12;13.80;1.00
3756;DHT22;1893;52.526;13.360;2022-09-23T08:33:38;13.90;99.90
3756;DHT22;1893;52.526;13.360;2022-09-23T08:36:05;13.70;99.90
3756;DHT22;1893;52.526;13.360;2022-09-23T08:38:31;13.80;1.00
3756;DHT22;1893;52.526;13.360;2022-09-23T08:43:52;14.00;99.90
3756;DHT22;1893;52.526;13.360;2022-09-23T08:46:32;14.20;1.00
3756;DHT22;1893;52.526;13.360;2022-09-23T08:49:00;14.30;82.00
3756;DHT22;1893;52.526;13.360;2022-09-23T08:51:40;14.40;99.90
3756;DHT22;1893;52.526;13.360;2022-09-23T08:54:09;14.50;1.00
3756;DHT22;1893;52.526;13.360;2022-09-23T08:56:37;14.80;1.00
3756;DHT22;1893;52.526;13.360;2022-09-23T08:59:22;15.00;1.00
3756;DHT22;1893;52.526;13.360;2022-09-23T09:02:03;15.20;1.00
3756;DHT22;1893;52.526;13.360;2022-09-23T09:04:40;15.30;99.90
3756;DHT22;1893;52.526;13.360;2022-09-23T09:09:41;14.80;1.00
3756;DHT22;1893;52.526;13.360;2022-09-23T09:12:44;15.00;99.90
3756;DHT22;1893;52.526;13.360;2022-09-23T09:15:21;15.30;1.00
3756;DHT22;1893;52.526;13.360;2022-09-23T09:21:11;15.20;1.10
3756;DHT22;1893;52.526;13.360;2022-09-23T09:23:54;15.20;98.40
3756;DHT22;1893;52.526;13.360;2022-09-23T09:26:26;15.80;1.00
3756;DHT22;1893;52.526;13.360;2022-09-23T09:29:17;16.00;1.00
3756;DHT22;1893;52.526;13.360;2022-09-23T09:31:49;16.10;1.00
3756;DHT22;1893;52.526;13.360;2022-09-23T09:34:39;16.10;1.00
3756;DHT22;1893;52.526;13.360;2022-09-23T09:37:14;15.80;1.00
3756;DHT22;1893;52.526;13.360;2022-09-23T09:39:42;15.80;1.00
3756;DHT22;1893;52.526;13.360;2022-09-23T09:42:14;15.80;1.00
3756;DHT22;1893;52.526;13.360;2022-09-23T09:44:48;15.90;1.00
3756;DHT22;1893;52.526;13.360;2022-09-23T09:49:45;15.80;1.00
3756;DHT22;1893;52.526;13.360;2022-09-23T09:54:45;16.10;1.00
3756;DHT22;1893;52.526;13.360;2022-09-23T09:57:25;16.00;1.00
3756;DHT22;1893;52.526;13.360;2022-09-23T09:59:55;16.20;1.00
3756;DHT22;1893;52.526;13.360;2022-09-23T10:02:23;16.20;1.00
3756;DHT22;1893;52.526;13.360;2022-09-23T10:07:50;16.30;1.00
3756;DHT22;1893;52.526;13.360;2022-09-23T10:10:24;16.30;1.00
3756;DHT22;1893;52.526;13.360;2022-09-23T10:12:50;16.50;1.00
3756;DHT22;1893;52.526;13.360;2022-09-23T10:15:31;16.70;1.00
3756;DHT22;1893;52.526;13.360;2022-09-23T10:18:17;17.00;1.00
3756;DHT22;1893;52.526;13.360;2022-09-23T10:20:43;16.90;1.00
3756;DHT22;1893;52.526;13.360;2022-09-23T10:23:14;16.90;1.00
3756;DHT22;1893;52.526;13.360;2022-09-23T10:25:41;17.10;1.00
3756;DHT22;1893;52.526;13.360;2022-09-23T10:28:29;17.60;1.00
3756;DHT22;1893;52.526;13.360;2022-09-23T10:31:13;17.80;1.00
3756;DHT22;1893;52.526;13.360;2022-09-23T10:33:43;17.90;1.00
3756;DHT22;1893;52.526;13.360;2022-09-23T10:36:11;18.20;1.00
3756;DHT22;1893;52.526;13.360;2022-09-23T10:38:38;18.60;1.00
3756;DHT22;1893;52.526;13.360;2022-09-23T10:41:09;19.20;1.00
3756;DHT22;1893;52.526;13.360;2022-09-23T10:47:53;19.40;1.00
3756;DHT22;1893;52.526;13.360;2022-09-23T10:50:29;19.20;99.90
3756;DHT22;1893;52.526;13.360;2022-09-23T10:53:08;19.70;99.90
3756;DHT22;1893;52.526;13.360;2022-09-23T10:58:52;20.10;99.90
3756;DHT22;1893;52.526;13.360;2022-09-23T11:01:54;20.00;99.90
3756;DHT22;1893;52.526;13.360;2022-09-23T11:04:49;19.60;99.90
3756;DHT22;1893;52.526;13.360;2022-09-23T11:07:48;19.40;99.90
3756;DHT22;1893;52.526;13.360;2022-09-23T11:16:05;19.40;99.90
3756;DHT22;1893;52.526;13.360;2022-09-23T11:18:55;19.00;99.90
3756;DHT22;1893;52.526;13.360;2022-09-23T11:24:36;18.50;99.90
3756;DHT22;1893;52.526;13.360;2022-09-23T11:30:00;18.40;99.90
3756;DHT22;1893;52.526;13.360;2022-09-23T11:32:58;18.50;99.90
3756;DHT22;1893;52.526;13.360;2022-09-23T11:35:33;18.80;99.90
3756;DHT22;1893;52.526;13.360;2022-09-23T11:38:18;18.60;99.90
3756;DHT22;1893;52.526;13.360;2022-09-23T11:40:51;18.60;99.90
3756;DHT22;1893;52.526;13.360;2022-09-23T11:43:24;18.50;99.90
3756;DHT22;1893;52.526;13.360;2022-09-23T11:48:34;18.40;99.90
3756;DHT22;1893;52.526;13.360;2022-09-23T11:51:05;18.10;99.90
3756;DHT22;1893;52.526;13.360;2022-09-23T11:54:04;17.70;99.90
3756;DHT22;1893;52.526;13.360;2022-09-23T11:56:39;18.00;99.90
3756;DHT22;1893;52.526;13.360;2022-09-23T12:02:03;18.10;99.90
3756;DHT22;1893;52.526;13.360;2022-09-23T12:04:38;17.80;99.90
3756;DHT22;1893;52.526;13.360;2022-09-23T12:15:57;17.80;99.90
3756;DHT22;1893;52.526;13.360;2022-09-23T12:18:51;18.30;99.90
3756;DHT22;1893;52.526;13.360;2022-09-23T12:26:44;19.10;99.90
3756;DHT22;1893;52.526;13.360;2022-09-23T12:29:14;19.50;99.90
3756;DHT22;1893;52.526;13.360;2022-09-23T12:31:41;19.40;99.90
3756;DHT22;1893;52.526;13.360;2022-09-23T12:34:24;19.40;99.90
3756;DHT22;1893;52.526;13.360;2022-09-23T12:36:52;19.30;99.90
3756;DHT22;1893;52.526;13.360;2022-09-23T12:39:33;19.70;99.90
3756;DHT22;1893;52.526;13.360;2022-09-23T12:42:04;20.00;99.90
3756;DHT22;1893;52.526;13.360;2022-09-23T12:44:43;20.20;99.90
3756;DHT22;1893;52.526;13.360;2022-09-23T12:49:50;20.60;99.90
3756;DHT22;1893;52.526;13.360;2022-09-23T12:54:47;20.00;99.90
3756;DHT22;1893;52.526;13.360;2022-09-23T13:00:13;19.00;99.90
3756;DHT22;1893;52.526;13.360;2022-09-23T13:02:52;18.80;99.90
3756;DHT22;1893;52.526;13.360;2022-09-23T13:05:50;18.70;99.90
3756;DHT22;1893;52.526;13.360;2022-09-23T13:08:37;18.30;99.90
3756;DHT22;1893;52.526;13.360;2022-09-23T13:11:06;18.40;99.90
3756;DHT22;1893;52.526;13.360;2022-09-23T13:13:40;18.30;99.90
3756;DHT22;1893;52.526;13.360;2022-09-23T13:16:25;18.60;99.90
3756;DHT22;1893;52.526;13.360;2022-09-23T13:18:58;18.70;99.90
3756;DHT22;1893;52.526;13.360;2022-09-23T13:27:03;18.30;99.90
3756;DHT22;1893;52.526;13.360;2022-09-23T13:30:04;18.50;99.90
3756;DHT22;1893;52.526;13.360;2022-09-23T13:32:36;18.60;99.90
3756;DHT22;1893;52.526;13.360;2022-09-23T13:35:39;18.60;99.90
3756;DHT22;1893;52.526;13.360;2022-09-23T13:38:26;18.70;99.90
3756;DHT22;1893;52.526;13.360;2022-09-23T13:41:06;18.70;99.90
3756;DHT22;1893;52.526;13.360;2022-09-23T13:43:36;18.60;99.90
3756;DHT22;1893;52.526;13.360;2022-09-23T13:46:09;18.70;99.90
3756;DHT22;1893;52.526;13.360;2022-09-23T13:48:39;18.60;99.90
3756;DHT22;1893;52.526;13.360;2022-09-23T13:51:10;18.60;99.90
3756;DHT22;1893;52.526;13.360;2022-09-23T13:53:39;18.30;99.90
3756;DHT22;1893;52.526;13.360;2022-09-23T13:56:10;18.30;99.90
3756;DHT22;1893;52.526;13.360;2022-09-23T13:58:36;18.00;99.90
3756;DHT22;1893;52.526;13.360;2022-09-23T14:01:02;18.20;99.90
3756;DHT22;1893;52.526;13.360;2022-09-23T14:03:35;18.30;99.90
3756;DHT22;1893;52.526;13.360;2022-09-23T14:06:05;18.10;99.90
3756;DHT22;1893;52.526;13.360;2022-09-23T14:08:31;17.90;99.90
3756;DHT22;1893;52.526;13.360;2022-09-23T14:10:58;17.80;99.90
3756;DHT22;1893;52.526;13.360;2022-09-23T14:13:32;18.00;99.90
3756;DHT22;1893;52.526;13.360;2022-09-23T14:16:01;18.30;99.90
3756;DHT22;1893;52.526;13.360;2022-09-23T14:18:34;18.20;99.90
3756;DHT22;1893;52.526;13.360;2022-09-23T14:21:00;17.80;99.90
3756;DHT22;1893;52.526;13.360;2022-09-23T14:23:26;17.60;99.90
3756;DHT22;1893;52.526;13.360;2022-09-23T14:25:53;17.60;99.90
3756;DHT22;1893;52.526;13.360;2022-09-23T14:28:21;17.60;99.90
3756;DHT22;1893;52.526;13.360;2022-09-23T14:30:49;17.50;99.90
3756;DHT22;1893;52.526;13.360;2022-09-23T14:33:24;17.60;99.90
3756;DHT22;1893;52.526;13.360;2022-09-23T14:35:53;17.70;99.90
3756;DHT22;1893;52.526;13.360;2022-09-23T14:38:26;17.70;99.90
3756;DHT22;1893;52.526;13.360;2022-09-23T14:41:34;17.80;99.90
3756;DHT22;1893;52.526;13.360;2022-09-23T14:44:02;17.80;99.90
3756;DHT22;1893;52.526;13.360;2022-09-23T14:46:33;17.70;99.90
3756;DHT22;1893;52.526;13.360;2022-09-23T14:49:12;17.70;99.90
3756;DHT22;1893;52.526;13.360;2022-09-23T14:56:51;17.40;99.90
3756;DHT22;1893;52.526;13.360;2022-09-23T14:59:39;17.30;99.90
3756;DHT22;1893;52.526;13.360;2022-09-23T15:02:44;17.20;99.90
3756;DHT22;1893;52.526;13.360;2022-09-23T15:05:20;17.20;99.90
3756;DHT22;1893;52.526;13.360;2022-09-23T15:07:51;17.10;99.90
3756;DHT22;1893;52.526;13.360;2022-09-23T15:12:46;16.90;99.90
3756;DHT22;1893;52.526;13.360;2022-09-23T15:15:15;16.90;99.90
3756;DHT22;1893;52.526;13.360;2022-09-23T15:17:41;17.00;99.90
3756;DHT22;1893;52.526;13.360;2022-09-23T15:20:23;17.00;99.90
3756;DHT22;1893;52.526;13.360;2022-09-23T15:22:52;16.90;99.90
3756;DHT22;1893;52.526;13.360;2022-09-23T15:25:25;17.00;99.90
3756;DHT22;1893;52.526;13.360;2022-09-23T15:28:15;16.90;99.90
3756;DHT22;1893;52.526;13.360;2022-09-23T15:30:41;17.00;99.90
3756;DHT22;1893;52.526;13.360;2022-09-23T15:33:11;16.90;99.90
3756;DHT22;1893;52.526;13.360;2022-09-23T15:35:41;16.80;99.90
3756;DHT22;1893;52.526;13.360;2022-09-23T15:38:09;16.90;99.90
3756;DHT22;1893;52.526;13.360;2022-09-23T15:40:36;16.80;99.90
3756;DHT22;1893;52.526;13.360;2022-09-23T15:43:16;16.80;99.90
3756;DHT22;1893;52.526;13.360;2022-09-23T15:45:54;16.80;99.90
3756;DHT22;1893;52.526;13.360;2022-09-23T15:48:27;16.60;99.90
3756;DHT22;1893;52.526;13.360;2022-09-23T15:50:55;16.50;99.90
3756;DHT22;1893;52.526;13.360;2022-09-23T15:53:26;16.50;99.90
3756;DHT22;1893;52.526;13.360;2022-09-23T15:55:52;16.40;99.90
3756;DHT22;1893;52.526;13.360;2022-09-23T15:58:19;16.40;99.90
3756;DHT22;1893;52.526;13.360;2022-09-23T16:00:46;16.40;99.90
3756;DHT22;1893;52.526;13.360;2022-09-23T16:03:13;16.40;99.90
3756;DHT22;1893;52.526;13.360;2022-09-23T16:05:47;16.40;99.90
3756;DHT22;1893;52.526;13.360;2022-09-23T16:08:13;16.30;99.90
3756;DHT22;1893;52.526;13.360;2022-09-23T16:10:40;16.30;99.90
3756;DHT22;1893;52.526;13.360;2022-09-23T16:13:10;16.20;1.00
3756;DHT22;1893;52.526;13.360;2022-09-23T16:15:36;16.10;1.00
3756;DHT22;1893;52.526;13.360;2022-09-23T16:18:03;16.00;99.90
3756;DHT22;1893;52.526;13.360;2022-09-23T16:20:29;16.00;99.90
3756;DHT22;1893;52.526;13.360;2022-09-23T16:23:01;15.90;1.00
3756;DHT22;1893;52.526;13.360;2022-09-23T16:25:28;16.00;99.90
3756;DHT22;1893;52.526;13.360;2022-09-23T16:27:56;15.90;99.90
3756;DHT22;1893;52.526;13.360;2022-09-23T16:30:27;15.90;1.00
3756;DHT22;1893;52.526;13.360;2022-09-23T16:32:53;15.80;1.00
3756;DHT22;1893;52.526;13.360;2022-09-23T16:35:19;15.80;99.90
3756;DHT22;1893;52.526;13.360;2022-09-23T16:37:46;15.90;99.90
3756;DHT22;1893;52.526;13.360;2022-09-23T16:40:14;15.90;99.90
3756;DHT22;1893;52.526;13.360;2022-09-23T16:42:47;15.90;99.90
3756;DHT22;1893;52.526;13.360;2022-09-23T16:45:15;15.80;99.90
3756;DHT22;1893;52.526;13.360;2022-09-23T16:47:43;15.70;99.90
3756;DHT22;1893;52.526;13.360;2022-09-23T16:50:10;15.70;99.90
3756;DHT22;1893;52.526;13.360;2022-09-23T16:52:36;15.60;99.90
3756;DHT22;1893;52.526;13.360;2022-09-23T16:55:02;15.60;99.90
3756;DHT22;1893;52.526;13.360;2022-09-23T16:57:28;15.70;99.90
3756;DHT22;1893;52.526;13.360;2022-09-23T16:59:54;15.60;99.90
3756;DHT22;1893;52.526;13.360;2022-09-23T17:02:38;15.60;99.90
3756;DHT22;1893;52.526;13.360;2022-09-23T17:05:22;15.50;99.90
3756;DHT22;1893;52.526;13.360;2022-09-23T17:07:48;15.40;99.90
3756;DHT22;1893;52.526;13.360;2022-09-23T17:10:13;15.30;99.90
3756;DHT22;1893;52.526;13.360;2022-09-23T17:12:39;15.30;99.90
3756;DHT22;1893;52.526;13.360;2022-09-23T17:15:05;15.20;99.90
3756;DHT22;1893;52.526;13.360;2022-09-23T17:17:35;15.00;1.00
3756;DHT22;1893;52.526;13.360;2022-09-23T17:20:04;15.00;1.00
3756;DHT22;1893;52.526;13.360;2022-09-23T17:22:32;15.00;1.00
3756;DHT22;1893;52.526;13.360;2022-09-23T17:24:59;14.90;1.00
3756;DHT22;1893;52.526;13.360;2022-09-23T17:27:24;14.90;1.00
3756;DHT22;1893;52.526;13.360;2022-09-23T17:29:50;14.80;1.00
3756;DHT22;1893;52.526;13.360;2022-09-23T17:32:16;14.80;1.00
3756;DHT22;1893;52.526;13.360;2022-09-23T17:34:42;14.70;1.00
3756;DHT22;1893;52.526;13.360;2022-09-23T17:37:08;14.60;1.00
3756;DHT22;1893;52.526;13.360;2022-09-23T17:39:34;14.60;1.00
3756;DHT22;1893;52.526;13.360;2022-09-23T17:41:59;14.50;1.00
3756;DHT22;1893;52.526;13.360;2022-09-23T17:44:27;14.50;81.40
3756;DHT22;1893;52.526;13.360;2022-09-23T17:46:53;14.50;1.00
3756;DHT22;1893;52.526;13.360;2022-09-23T17:49:19;14.60;1.00
3756;DHT22;1893;52.526;13.360;2022-09-23T17:51:46;14.60;1.00
3756;DHT22;1893;52.526;13.360;2022-09-23T17:54:11;14.60;1.00
3756;DHT22;1893;52.526;13.360;2022-09-23T17:56:39;14.70;1.00
3756;DHT22;1893;52.526;13.360;2022-09-23T17:59:08;14.70;1.00
3756;DHT22;1893;52.526;13.360;2022-09-23T18:01:34;14.70;1.00
3756;DHT22;1893;52.526;13.360;2022-09-23T18:04:00;14.50;1.00
3756;DHT22;1893;52.526;13.360;2022-09-23T18:06:28;14.50;1.00